createdAt,value
2018-02-11T11:52:36.442Z,48.00
2018-02-11T11:54:39.002Z,48.30
2018-02-11T11:56:41.570Z,48.40
2018-02-11T11:58:44.117Z,48.30
2018-02-11T12:00:47.630Z,48.10
2018-02-11T12:02:50.274Z,48.00
2018-02-11T12:04:55.700Z,47.90
2018-02-11T12:06:58.607Z,47.60
2018-02-11T12:09:01.283Z,47.60
2018-02-11T12:11:03.876Z,47.40
2018-02-11T12:13:07.227Z,47.20
2018-02-11T12:15:09.819Z,47.10
2018-02-11T12:17:12.369Z,47.10
2018-02-11T12:19:14.958Z,47.60
2018-02-11T12:21:18.189Z,46.90
2018-02-11T12:23:20.765Z,46.90
2018-02-11T12:25:23.307Z,47.00
2018-02-11T12:27:26.645Z,47.50
2018-02-11T12:29:29.743Z,47.50
2018-02-11T12:31:32.290Z,47.40
2018-02-11T12:33:35.151Z,47.30
2018-02-11T12:35:38.474Z,47.10
2018-02-11T12:37:41.050Z,47.10
2018-02-11T12:39:43.637Z,47.00
2018-02-11T12:41:46.205Z,46.90
2018-02-11T12:43:48.767Z,46.60
2018-02-11T12:45:51.299Z,46.60
2018-02-11T12:47:54.613Z,46.60
2018-02-11T12:52:06.208Z,46.60
2018-02-11T12:54:08.782Z,46.70
2018-02-11T12:56:12.267Z,46.70
2018-02-11T12:58:14.885Z,46.70
2018-02-11T13:00:17.445Z,46.70
2018-02-11T13:02:20.009Z,46.70
2018-02-11T13:04:22.567Z,46.70
2018-02-11T13:06:25.127Z,46.80
2018-02-11T13:08:27.692Z,46.80
2018-02-11T13:10:30.249Z,46.80
2018-02-11T13:12:32.809Z,46.80
2018-02-11T13:14:35.384Z,46.90
2018-02-11T13:16:37.966Z,46.90
2018-02-11T13:18:40.838Z,46.90
2018-02-11T13:20:43.393Z,46.90
2018-02-11T13:22:45.959Z,46.80
2018-02-11T13:24:48.545Z,46.60
2018-02-11T13:26:51.157Z,46.60
2018-02-11T13:28:53.721Z,46.60
2018-02-11T13:30:56.251Z,46.60
2018-02-11T13:32:58.830Z,46.60
2018-02-11T13:35:01.389Z,46.70
2018-02-11T13:37:03.979Z,46.70
2018-02-11T13:39:06.563Z,46.70
2018-02-11T13:41:09.140Z,46.70
2018-02-11T13:43:11.740Z,46.70
2018-02-11T13:45:14.309Z,46.60
2018-02-11T13:47:16.862Z,46.60
2018-02-11T13:49:20.188Z,46.70
2018-02-11T13:51:22.785Z,46.70
2018-02-11T13:53:26.095Z,46.50
2018-02-11T13:55:29.678Z,46.50
2018-02-11T13:57:33.005Z,46.40
2018-02-11T13:59:35.557Z,46.30
2018-02-11T14:01:38.149Z,46.20
2018-02-11T14:03:40.718Z,46.20
2018-02-11T14:05:43.443Z,46.20
2018-02-11T14:07:46.042Z,46.10
2018-02-11T14:09:48.578Z,46.10
2018-02-11T14:11:51.179Z,46.20
2018-02-11T14:13:54.502Z,46.40
2018-02-11T14:15:57.068Z,46.30
2018-02-11T14:17:59.664Z,46.40
2018-02-11T14:20:02.281Z,46.50
2018-02-11T14:22:04.880Z,46.50
2018-02-11T14:24:08.187Z,46.60
2018-02-11T14:26:12.657Z,46.70
2018-02-11T14:28:15.648Z,46.80
2018-02-11T14:30:18.299Z,46.90
2018-02-11T14:32:20.931Z,47.00
2018-02-11T14:34:23.490Z,47.00
2018-02-11T14:36:26.134Z,47.00
2018-02-11T14:38:29.649Z,47.00
2018-02-11T14:40:32.207Z,47.00
2018-02-11T14:42:34.828Z,46.80
2018-02-11T14:44:37.449Z,47.00
2018-02-11T14:46:40.016Z,47.00
2018-02-11T14:48:42.607Z,46.90
2018-02-11T14:50:45.153Z,46.90
2018-02-11T14:52:49.121Z,46.90
2018-02-11T14:54:52.612Z,47.00
2018-02-11T14:56:55.181Z,47.00
2018-02-11T14:58:57.747Z,46.90
2018-02-11T15:01:00.296Z,46.90
2018-02-11T15:03:03.780Z,46.90
2018-02-11T15:05:06.315Z,46.90
2018-02-11T15:07:09.468Z,47.00
2018-02-11T15:09:12.030Z,47.00
2018-02-11T15:11:14.573Z,47.00
2018-02-11T15:13:17.126Z,47.00
2018-02-11T15:15:19.668Z,46.90
2018-02-11T15:17:22.254Z,46.90
2018-02-11T15:19:25.238Z,47.00
2018-02-11T15:21:27.843Z,47.00
2018-02-11T15:23:32.269Z,47.00
2018-02-11T15:25:34.819Z,47.00
2018-02-11T15:27:37.438Z,47.00
2018-02-11T15:29:39.993Z,47.00
2018-02-11T15:31:43.499Z,47.00
2018-02-11T15:33:47.240Z,47.10
2018-02-11T15:35:49.840Z,47.10
2018-02-11T15:37:52.417Z,47.00
2018-02-11T15:39:55.432Z,46.70
2018-02-11T15:41:58.495Z,46.60
2018-02-11T15:44:01.048Z,46.50
2018-02-11T15:46:04.158Z,46.30
2018-02-11T15:48:07.353Z,46.20
2018-02-11T15:50:10.926Z,46.10
2018-02-11T15:52:13.973Z,46.10
2018-02-11T15:54:16.696Z,46.00
2018-02-11T15:56:19.254Z,45.90
2018-02-11T15:58:22.570Z,45.80
2018-02-11T16:00:25.117Z,45.80
2018-02-11T16:02:27.685Z,45.70
2018-02-11T16:04:30.236Z,45.70
2018-02-11T16:06:33.574Z,45.60
2018-02-11T16:08:36.884Z,45.50
2018-02-11T16:10:39.422Z,45.60
2018-02-11T16:12:42.007Z,45.50
2018-02-11T16:14:44.549Z,45.40
2018-02-11T16:16:47.126Z,45.40
2018-02-11T16:18:49.700Z,45.40
2018-02-11T16:20:53.074Z,45.30
2018-02-11T16:22:55.660Z,45.30
2018-02-11T16:24:58.195Z,45.30
2018-02-11T16:27:00.761Z,45.30
2018-02-11T16:29:03.298Z,45.40
2018-02-11T16:31:05.864Z,45.60
2018-02-11T16:33:08.425Z,45.90
2018-02-11T16:35:10.969Z,46.40
2018-02-11T16:37:14.287Z,46.50
2018-02-11T16:39:16.826Z,46.50
2018-02-11T16:41:19.385Z,46.40
2018-02-11T16:43:22.564Z,46.30
2018-02-11T16:45:25.122Z,46.20
2018-02-11T16:47:27.688Z,46.10
2018-02-11T16:49:30.998Z,46.00
2018-02-11T16:51:34.362Z,46.00
2018-02-11T16:53:36.919Z,45.90
2018-02-11T16:55:39.478Z,45.80
2018-02-11T16:57:42.055Z,45.80
2018-02-11T16:59:44.610Z,45.70
2018-02-11T17:01:47.178Z,45.70
2018-02-11T17:03:49.732Z,45.60
2018-02-11T17:05:52.281Z,45.60
2018-02-11T17:07:55.586Z,45.60
2018-02-11T17:09:58.566Z,45.50
2018-02-11T17:12:01.892Z,46.00
2018-02-11T17:14:04.449Z,45.90
2018-02-11T17:16:06.974Z,45.80
2018-02-11T17:18:09.535Z,45.90
2018-02-11T17:20:12.070Z,45.70
2018-02-11T17:22:14.843Z,45.60
2018-02-11T17:24:17.376Z,45.40
2018-02-11T17:26:19.906Z,45.40
2018-02-11T17:28:22.451Z,45.40
2018-02-11T17:30:25.013Z,45.30
2018-02-11T17:32:28.353Z,45.80
2018-02-11T17:34:30.925Z,45.80
2018-02-11T17:36:33.481Z,46.10
2018-02-11T17:38:36.045Z,46.90
2018-02-11T17:40:38.590Z,47.20
2018-02-11T17:42:41.165Z,47.30
2018-02-11T17:44:43.703Z,47.60
2018-02-11T17:46:47.025Z,47.80
2018-02-11T17:48:49.585Z,47.80
2018-02-11T17:50:52.139Z,47.90
2018-02-11T17:52:54.737Z,47.80
2018-02-11T17:54:57.270Z,47.70
2018-02-11T17:56:59.832Z,47.60
2018-02-11T17:59:02.408Z,47.50
2018-02-11T18:01:04.950Z,47.40
2018-02-11T18:03:09.079Z,47.40
2018-02-11T18:05:11.624Z,47.30
2018-02-11T18:07:14.215Z,47.30
2018-02-11T18:09:16.754Z,47.30
2018-02-11T18:11:19.314Z,47.30
2018-02-11T18:13:21.889Z,47.30
2018-02-11T18:15:25.346Z,47.90
2018-02-11T18:17:27.917Z,47.40
2018-02-11T18:19:33.909Z,47.40
2018-02-11T18:21:36.492Z,47.40
2018-02-11T18:23:39.064Z,47.40
2018-02-11T18:25:41.603Z,47.30
2018-02-11T18:27:46.085Z,47.30
2018-02-11T18:29:48.653Z,47.30
2018-02-11T18:31:51.247Z,48.00
2018-02-11T18:33:53.810Z,47.30
2018-02-11T18:35:57.144Z,47.40
2018-02-11T18:37:59.712Z,47.40
2018-02-11T18:40:02.283Z,47.30
2018-02-11T18:42:04.876Z,47.40
2018-02-11T18:44:07.441Z,47.40
2018-02-11T18:46:09.966Z,47.40
2018-02-11T18:48:12.533Z,47.40
2018-02-11T18:50:15.088Z,47.40
2018-02-11T18:52:17.631Z,47.40
2018-02-11T18:54:20.161Z,47.40
2018-02-11T18:56:23.491Z,47.40
2018-02-11T18:58:26.014Z,47.40
2018-02-11T19:00:28.576Z,47.30
2018-02-11T19:02:31.133Z,47.40
2018-02-11T19:04:33.685Z,47.40
2018-02-11T19:06:36.248Z,47.40
2018-02-11T19:08:38.801Z,47.40
2018-02-11T19:10:41.382Z,47.40
2018-02-11T19:12:43.970Z,47.40
2018-02-11T19:14:46.522Z,47.30
2018-02-11T19:16:50.267Z,47.40
2018-02-11T19:18:52.837Z,47.40
2018-02-11T19:20:55.384Z,47.40
2018-02-11T19:22:58.006Z,47.40
2018-02-11T19:25:00.549Z,47.50
2018-02-11T19:27:03.103Z,47.50
2018-02-11T19:29:06.401Z,47.60
2018-02-11T19:31:08.937Z,47.60
2018-02-11T19:33:11.482Z,47.40
2018-02-11T19:35:14.046Z,47.50
2018-02-11T19:37:16.602Z,47.50
2018-02-11T19:39:19.145Z,47.50
2018-02-11T19:41:21.701Z,47.40
2018-02-11T19:43:24.259Z,47.50
2018-02-11T19:45:26.808Z,47.50
2018-02-11T19:47:29.376Z,47.50
2018-02-11T19:49:32.317Z,47.40
2018-02-11T19:51:34.871Z,47.40
2018-02-11T19:53:37.431Z,47.40
2018-02-11T19:55:40.002Z,47.40
2018-02-11T19:57:42.600Z,47.40
2018-02-11T19:59:45.151Z,47.40
2018-02-11T20:01:47.736Z,47.40
2018-02-11T20:03:50.356Z,47.40
2018-02-11T20:05:52.913Z,47.50
2018-02-11T20:07:56.762Z,47.40
2018-02-11T20:10:02.084Z,47.40
2018-02-11T20:12:04.636Z,47.40
2018-02-11T20:14:07.954Z,47.40
2018-02-11T20:16:10.504Z,47.40
2018-02-11T20:18:14.073Z,47.40
2018-02-11T20:20:17.401Z,47.60
2018-02-11T20:22:19.997Z,47.50
2018-02-11T20:24:22.550Z,47.60
2018-02-11T20:26:25.157Z,47.80
2018-02-11T20:28:27.683Z,47.80
2018-02-11T20:30:31.018Z,48.10
2018-02-11T20:32:33.601Z,48.00
2018-02-11T20:34:37.062Z,48.10
2018-02-11T20:36:39.843Z,48.00
2018-02-11T20:38:42.367Z,48.10
2018-02-11T20:40:44.963Z,48.20
2018-02-11T20:42:47.536Z,48.20
2018-02-11T20:44:52.686Z,49.00
2018-02-11T20:46:55.236Z,48.40
2018-02-11T20:48:57.825Z,48.50
2018-02-11T20:51:02.015Z,48.40
2018-02-11T20:53:04.587Z,48.40
2018-02-11T20:55:07.153Z,48.40
2018-02-11T20:57:09.718Z,48.50
2018-02-11T20:59:12.248Z,48.60
2018-02-11T21:01:14.781Z,48.60
2018-02-11T21:03:17.361Z,48.60
2018-02-11T21:05:19.910Z,48.60
2018-02-11T21:07:22.460Z,48.70
2018-02-11T21:09:25.014Z,48.70
2018-02-11T21:11:27.576Z,48.70
2018-02-11T21:13:30.900Z,48.70
2018-02-11T21:15:33.433Z,48.70
2018-02-11T21:17:35.984Z,48.70
2018-02-11T21:19:38.540Z,48.70
2018-02-11T22:18:34.126Z,48.70
2018-02-11T22:20:36.685Z,49.00
2018-02-11T22:22:39.548Z,49.10
2018-02-11T22:24:42.104Z,49.30
2018-02-11T22:26:44.673Z,49.40
2018-02-11T22:28:47.221Z,49.40
2018-02-11T22:30:49.834Z,49.40
2018-02-11T22:32:52.385Z,49.30
2018-02-11T22:34:55.920Z,49.30
2018-02-11T22:36:58.499Z,49.40
2018-02-11T22:39:01.410Z,49.30
2018-02-11T22:41:03.965Z,49.30
2018-02-11T22:43:06.823Z,49.30
2018-02-11T22:45:09.423Z,49.30
2018-02-11T22:47:11.990Z,49.30
2018-02-11T22:49:14.558Z,49.20
2018-02-11T22:51:17.084Z,49.20
2018-02-11T22:53:19.628Z,49.20
2018-02-11T22:55:22.278Z,49.30
